createdAt,value
2019-03-28T00:01:34.984Z,8.60
2019-03-28T00:04:06.621Z,8.60
2019-03-28T00:06:37.335Z,8.60
2019-03-28T00:09:09.377Z,8.60
2019-03-28T00:11:40.068Z,8.60
2019-03-28T00:14:10.748Z,8.60
2019-03-28T00:16:41.453Z,8.60
2019-03-28T00:19:12.163Z,8.60
2019-03-28T00:21:42.871Z,8.60
2019-03-28T00:24:38.460Z,8.60
2019-03-28T00:27:09.153Z,8.70
2019-03-28T00:29:39.836Z,8.70
2019-03-28T00:32:10.531Z,8.80
2019-03-28T00:34:41.264Z,8.80
2019-03-28T00:37:12.063Z,8.80
2019-03-28T00:39:42.776Z,8.80
2019-03-28T00:42:13.488Z,8.80
2019-03-28T00:44:44.227Z,8.90
2019-03-28T00:47:14.905Z,8.90
2019-03-28T00:49:45.620Z,8.90
2019-03-28T00:52:16.365Z,8.90
2019-03-28T00:54:47.107Z,8.90
2019-03-28T00:57:18.176Z,8.90
2019-03-28T00:59:49.247Z,8.90
2019-03-28T01:02:20.091Z,8.90
2019-03-28T01:04:50.755Z,8.90
2019-03-28T01:07:22.068Z,8.90
2019-03-28T01:09:52.811Z,8.90
2019-03-28T01:12:23.507Z,8.80
2019-03-28T01:14:54.178Z,8.80
2019-03-28T01:17:24.883Z,8.80
2019-03-28T01:19:55.440Z,8.80
2019-03-28T01:22:26.115Z,8.80
2019-03-28T01:24:57.930Z,8.80
2019-03-28T01:27:28.716Z,8.80
2019-03-28T01:29:59.375Z,8.80
2019-03-28T01:32:29.984Z,8.80
2019-03-28T01:35:00.619Z,8.80
2019-03-28T01:37:31.218Z,8.70
2019-03-28T01:40:01.780Z,8.70
2019-03-28T01:42:32.375Z,8.70
2019-03-28T01:45:03.019Z,8.60
2019-03-28T01:47:33.662Z,8.60
2019-03-28T01:50:04.539Z,8.70
2019-03-28T01:52:35.339Z,8.60
2019-03-28T01:55:07.686Z,8.60
2019-03-28T01:57:38.443Z,8.60
2019-03-28T02:00:10.171Z,8.50
2019-03-28T02:02:40.754Z,8.50
2019-03-28T02:05:11.428Z,8.50
2019-03-28T02:07:42.037Z,8.50
2019-03-28T02:10:12.915Z,8.40
2019-03-28T02:12:43.608Z,8.40
2019-03-28T02:15:14.622Z,8.30
2019-03-28T02:17:45.328Z,8.30
2019-03-28T02:20:17.613Z,8.30
2019-03-28T02:22:48.299Z,8.30
2019-03-28T02:25:19.951Z,8.30
2019-03-28T02:27:51.192Z,8.30
2019-03-28T02:30:31.869Z,8.30
2019-03-28T02:33:02.695Z,8.30
2019-03-28T02:35:33.372Z,8.30
2019-03-28T02:38:04.073Z,8.40
2019-03-28T02:40:34.806Z,8.40
2019-03-28T02:43:05.490Z,8.40
2019-03-28T02:45:36.175Z,8.50
2019-03-28T02:48:06.865Z,8.50
2019-03-28T02:50:37.843Z,8.50
2019-03-28T02:53:08.705Z,8.60
2019-03-28T02:55:39.370Z,8.60
2019-03-28T02:58:10.763Z,8.50
2019-03-28T03:00:41.812Z,8.50
2019-03-28T03:03:12.528Z,8.50
2019-03-28T03:05:43.197Z,8.50
2019-03-28T03:08:13.877Z,8.60
2019-03-28T03:10:44.548Z,8.50
2019-03-28T03:13:15.243Z,8.50
2019-03-28T03:15:45.919Z,8.50
2019-03-28T03:18:16.612Z,8.50
2019-03-28T03:20:47.278Z,8.50
2019-03-28T03:23:18.089Z,8.50
2019-03-28T03:25:48.843Z,8.50
2019-03-28T03:28:19.515Z,8.50
2019-03-28T03:30:50.187Z,8.40
2019-03-28T03:33:20.886Z,8.50
2019-03-28T03:35:51.559Z,8.40
2019-03-28T03:38:22.287Z,8.50
2019-03-28T03:40:52.960Z,8.50
2019-03-28T03:43:23.713Z,8.50
2019-03-28T03:45:55.156Z,8.40
2019-03-28T03:48:25.858Z,8.50
2019-03-28T03:50:56.540Z,8.40
2019-03-28T03:53:27.237Z,8.40
2019-03-28T03:55:57.925Z,8.50
2019-03-28T03:58:28.645Z,8.50
2019-03-28T04:00:59.320Z,8.50
2019-03-28T04:03:30.019Z,8.50
2019-03-28T04:06:00.696Z,8.50
2019-03-28T04:08:31.395Z,8.40
2019-03-28T04:11:02.068Z,8.40
2019-03-28T04:13:32.814Z,8.40
2019-03-28T04:16:03.962Z,8.40
2019-03-28T04:18:34.868Z,8.40
2019-03-28T04:21:05.613Z,8.40
2019-03-28T04:23:36.313Z,8.40
2019-03-28T04:26:07.026Z,8.40
2019-03-28T04:28:38.516Z,8.40
2019-03-28T04:31:09.390Z,8.40
2019-03-28T04:33:40.065Z,8.40
2019-03-28T04:36:10.819Z,8.40
2019-03-28T04:38:41.514Z,8.40
2019-03-28T04:41:12.213Z,8.30
2019-03-28T04:43:42.924Z,8.30
2019-03-28T04:46:13.615Z,8.30
2019-03-28T04:48:44.277Z,8.20
2019-03-28T04:51:15.008Z,8.30
2019-03-28T04:53:45.703Z,8.20
2019-03-28T04:56:16.393Z,8.20
2019-03-28T04:58:47.066Z,8.20
2019-03-28T05:01:17.753Z,8.20
2019-03-28T05:03:49.373Z,8.20
2019-03-28T05:06:20.123Z,8.10
2019-03-28T05:08:50.815Z,8.10
2019-03-28T05:11:21.514Z,8.10
2019-03-28T05:13:52.171Z,8.10
2019-03-28T05:16:23.344Z,8.10
2019-03-28T05:18:54.019Z,8.10
2019-03-28T05:21:24.704Z,8.10
2019-03-28T05:23:55.398Z,8.10
2019-03-28T05:26:26.097Z,8.10
2019-03-28T05:28:58.069Z,8.10
2019-03-28T05:31:29.196Z,8.10
2019-03-28T05:34:00.027Z,8.20
2019-03-28T05:36:30.775Z,8.20
2019-03-28T05:39:01.452Z,8.20
2019-03-28T05:41:33.499Z,8.20
2019-03-28T05:44:04.156Z,8.20
2019-03-28T05:46:34.853Z,8.20
2019-03-28T05:49:05.516Z,8.20
2019-03-28T05:51:36.215Z,8.20
2019-03-28T05:54:06.912Z,8.20
2019-03-28T05:56:37.621Z,8.20
2019-03-28T05:59:11.070Z,8.20
2019-03-28T06:01:40.700Z,8.20
2019-03-28T06:04:11.367Z,8.10
2019-03-28T06:06:42.055Z,8.10
2019-03-28T06:09:12.730Z,8.10
2019-03-28T06:11:43.423Z,8.10
2019-03-28T06:14:14.087Z,8.20
2019-03-28T06:16:44.789Z,8.20
2019-03-28T06:19:15.467Z,8.30
2019-03-28T06:21:46.238Z,8.40
2019-03-28T06:24:16.983Z,8.40
2019-03-28T06:26:49.967Z,8.50
2019-03-28T06:29:24.223Z,8.60
2019-03-28T06:31:55.560Z,8.60
2019-03-28T06:34:24.884Z,8.60
2019-03-28T06:36:55.797Z,8.60
2019-03-28T06:39:27.427Z,8.60
2019-03-28T06:41:58.111Z,8.60
2019-03-28T06:44:28.795Z,8.60
2019-03-28T06:46:59.527Z,8.70
2019-03-28T06:49:30.220Z,8.80
2019-03-28T06:52:00.911Z,8.90
2019-03-28T06:54:31.607Z,8.90
2019-03-28T06:57:02.315Z,9.00
2019-03-28T06:59:37.666Z,9.10
2019-03-28T07:02:05.526Z,9.20
2019-03-28T07:04:36.260Z,9.30
2019-03-28T07:07:06.980Z,9.30
2019-03-28T07:09:37.642Z,9.40
2019-03-28T07:12:08.352Z,9.40
2019-03-28T07:14:39.041Z,9.50
2019-03-28T07:17:09.755Z,9.60
2019-03-28T07:19:40.464Z,9.60
2019-03-28T07:22:11.186Z,9.80
2019-03-28T07:24:41.868Z,9.80
2019-03-28T07:27:12.551Z,9.70
2019-03-28T07:29:50.622Z,9.80
2019-03-28T07:32:15.651Z,9.60
2019-03-28T07:34:46.315Z,9.60
2019-03-28T07:37:17.023Z,9.70
2019-03-28T07:39:47.704Z,9.80
2019-03-28T07:42:18.396Z,9.90
2019-03-28T07:44:49.080Z,10.00
2019-03-28T07:47:19.780Z,10.10
2019-03-28T07:49:50.506Z,10.20
2019-03-28T07:52:21.195Z,10.30
2019-03-28T07:54:51.888Z,10.40
2019-03-28T07:57:22.571Z,10.40
2019-03-28T08:00:03.633Z,10.50
2019-03-28T08:02:25.688Z,10.50
2019-03-28T08:04:56.379Z,10.40
2019-03-28T08:07:28.074Z,10.40
2019-03-28T08:09:58.766Z,10.40
2019-03-28T08:12:30.466Z,10.40
2019-03-28T08:15:02.268Z,10.50
2019-03-28T08:17:33.254Z,10.50
2019-03-28T08:20:04.846Z,10.60
2019-03-28T08:22:35.572Z,10.60
2019-03-28T08:25:10.995Z,10.50
2019-03-28T08:27:40.492Z,10.60
2019-03-28T08:30:18.749Z,10.70
2019-03-28T08:32:45.570Z,10.70
2019-03-28T08:35:16.235Z,10.70
2019-03-28T08:37:47.035Z,10.90
2019-03-28T08:40:41.304Z,11.00
2019-03-28T08:43:12.271Z,10.90
2019-03-28T08:45:42.951Z,10.90
2019-03-28T08:48:21.297Z,10.80
2019-03-28T08:50:51.957Z,10.90
2019-03-28T08:53:22.667Z,10.90
2019-03-28T08:55:53.331Z,10.90
2019-03-28T08:58:24.119Z,11.00
2019-03-28T09:00:54.844Z,11.00
2019-03-28T09:03:25.541Z,11.20
2019-03-28T09:05:56.360Z,11.30
2019-03-28T09:08:27.048Z,11.40
2019-03-28T09:10:57.747Z,11.50
2019-03-28T09:13:28.481Z,11.50
2019-03-28T09:15:59.199Z,11.50
2019-03-28T09:18:29.912Z,11.60
2019-03-28T09:21:00.597Z,11.60
2019-03-28T09:23:31.307Z,11.60
2019-03-28T09:26:04.364Z,11.70
2019-03-28T09:28:34.384Z,11.90
2019-03-28T09:31:18.957Z,11.90
2019-03-28T09:33:40.527Z,12.00
2019-03-28T09:36:09.823Z,12.20
2019-03-28T09:38:40.536Z,12.20
2019-03-28T09:41:11.200Z,12.20
2019-03-28T09:43:54.684Z,12.30
2019-03-28T09:46:14.284Z,12.30
2019-03-28T09:48:44.996Z,12.40
2019-03-28T09:51:15.667Z,12.50
2019-03-28T09:53:46.358Z,12.60
2019-03-28T09:56:17.127Z,12.60
2019-03-28T09:58:47.871Z,12.50
2019-03-28T10:01:19.628Z,12.50
2019-03-28T10:03:50.327Z,12.50
2019-03-28T10:06:21.001Z,12.40
2019-03-28T10:08:51.710Z,12.40
2019-03-28T10:11:22.376Z,12.40
2019-03-28T10:13:53.083Z,12.60
2019-03-28T10:16:23.873Z,12.80
2019-03-28T10:18:54.564Z,12.90
2019-03-28T10:21:25.251Z,13.00
2019-03-28T10:23:55.951Z,13.10
2019-03-28T10:26:26.667Z,13.20
2019-03-28T10:28:57.352Z,13.60
2019-03-28T10:31:28.256Z,14.00
2019-03-28T10:33:58.947Z,14.10
2019-03-28T10:36:29.619Z,13.90
2019-03-28T10:39:00.380Z,14.00
2019-03-28T10:41:31.052Z,14.10
2019-03-28T10:44:01.767Z,14.40
2019-03-28T10:46:32.459Z,14.70
2019-03-28T10:49:03.171Z,14.80
2019-03-28T10:51:33.851Z,15.10
2019-03-28T10:54:18.710Z,15.40
2019-03-28T10:56:50.762Z,15.70
2019-03-28T10:59:22.369Z,15.70
2019-03-28T11:01:49.125Z,15.60
2019-03-28T11:04:14.144Z,15.70
2019-03-28T11:06:44.876Z,15.40
2019-03-28T11:09:15.587Z,14.60
2019-03-28T11:11:46.255Z,14.80
2019-03-28T11:14:16.991Z,14.30
2019-03-28T11:16:48.347Z,14.50
2019-03-28T11:19:19.283Z,14.70
2019-03-28T11:21:50.017Z,14.80
2019-03-28T11:24:20.723Z,15.20
2019-03-28T11:26:51.415Z,15.80
2019-03-28T11:29:22.184Z,16.50
2019-03-28T11:31:52.894Z,16.90
2019-03-28T11:34:23.663Z,16.70
2019-03-28T11:36:54.339Z,15.60
2019-03-28T11:39:25.080Z,15.90
2019-03-28T11:41:55.756Z,16.00
2019-03-28T11:44:26.464Z,16.10
2019-03-28T11:46:57.162Z,16.30
2019-03-28T11:49:27.904Z,16.80
2019-03-28T11:51:58.639Z,16.40
2019-03-28T11:54:29.358Z,16.20
2019-03-28T11:57:00.085Z,16.40
2019-03-28T11:59:30.808Z,16.70
2019-03-28T12:02:18.568Z,16.50
2019-03-28T12:04:33.983Z,15.80
2019-03-28T12:07:04.648Z,16.20
2019-03-28T12:09:35.346Z,16.20
2019-03-28T12:12:06.018Z,16.10
2019-03-28T12:14:36.716Z,16.50
2019-03-28T12:17:07.418Z,16.50
2019-03-28T12:19:38.160Z,16.80
2019-03-28T12:22:08.843Z,16.80
2019-03-28T12:24:39.541Z,16.70
2019-03-28T12:27:10.208Z,16.40
2019-03-28T12:29:40.950Z,16.20
2019-03-28T12:32:14.212Z,17.00
2019-03-28T12:34:44.004Z,18.30
2019-03-28T12:37:14.687Z,19.40
2019-03-28T12:39:45.481Z,19.80
2019-03-28T12:42:17.230Z,19.20
2019-03-28T12:44:56.834Z,19.00
2019-03-28T12:47:20.302Z,18.90
2019-03-28T12:49:51.053Z,19.00
2019-03-28T12:52:21.736Z,19.00
2019-03-28T12:54:52.441Z,18.80
2019-03-28T12:57:23.097Z,19.60
2019-03-28T12:59:53.905Z,20.10
2019-03-28T13:02:31.471Z,20.40
2019-03-28T13:04:58.003Z,20.10
2019-03-28T13:07:28.676Z,19.50
2019-03-28T13:09:59.377Z,18.60
2019-03-28T13:12:30.066Z,17.30
2019-03-28T13:15:00.815Z,16.40
2019-03-28T13:17:32.551Z,15.80
2019-03-28T13:20:03.226Z,15.70
2019-03-28T13:22:33.903Z,15.90
2019-03-28T13:25:05.027Z,15.70
2019-03-28T13:27:36.548Z,15.50
2019-03-28T13:30:09.446Z,15.30
2019-03-28T13:32:42.218Z,15.00
2019-03-28T13:35:12.520Z,15.20
2019-03-28T13:37:43.192Z,15.20
2019-03-28T13:40:13.913Z,15.00
2019-03-28T13:42:44.608Z,14.90
2019-03-28T13:45:15.400Z,14.80
2019-03-28T13:47:46.080Z,14.90
2019-03-28T13:50:17.168Z,14.90
2019-03-28T13:52:47.835Z,14.70
2019-03-28T13:55:18.750Z,14.90
2019-03-28T13:57:52.102Z,14.90
2019-03-28T14:00:31.721Z,14.50
2019-03-28T14:03:02.375Z,14.40
2019-03-28T14:05:33.059Z,14.60
2019-03-28T14:08:03.766Z,14.60
2019-03-28T14:10:34.484Z,14.70
2019-03-28T14:13:05.171Z,14.50
2019-03-28T14:15:35.860Z,14.50
2019-03-28T14:18:06.570Z,14.70
2019-03-28T14:20:37.296Z,14.50
2019-03-28T14:23:08.016Z,14.30
2019-03-28T14:25:38.676Z,14.40
2019-03-28T14:28:09.369Z,14.30
2019-03-28T14:30:41.017Z,14.50
2019-03-28T14:33:15.619Z,14.50
2019-03-28T14:35:44.231Z,14.50
2019-03-28T14:38:14.979Z,14.50
2019-03-28T14:40:46.628Z,14.40
2019-03-28T14:43:17.367Z,14.30
2019-03-28T14:45:48.057Z,14.30
2019-03-28T14:48:18.797Z,14.30
2019-03-28T14:50:50.442Z,14.30
2019-03-28T14:53:22.369Z,14.20
2019-03-28T14:55:53.409Z,14.20
2019-03-28T14:58:24.700Z,14.10
2019-03-28T15:00:55.504Z,14.10
2019-03-28T15:03:27.457Z,14.10
2019-03-28T15:05:58.704Z,14.10
2019-03-28T15:08:29.588Z,14.10
2019-03-28T15:11:00.296Z,14.10
2019-03-28T15:13:31.083Z,14.30
2019-03-28T15:16:01.772Z,14.30
2019-03-28T15:18:32.500Z,14.40
2019-03-28T15:21:03.234Z,14.30
2019-03-28T15:23:34.988Z,14.30
2019-03-28T15:26:05.775Z,14.30
2019-03-28T15:28:36.463Z,14.10
2019-03-28T15:31:07.163Z,14.30
2019-03-28T15:33:39.815Z,14.30
2019-03-28T15:36:10.327Z,14.40
2019-03-28T15:38:41.070Z,14.30
2019-03-28T15:41:11.819Z,14.20
2019-03-28T15:43:42.599Z,14.10
2019-03-28T15:46:13.327Z,13.90
2019-03-28T15:48:44.108Z,13.80
2019-03-28T15:51:14.815Z,13.90
2019-03-28T15:53:45.512Z,14.00
2019-03-28T15:56:16.232Z,13.90
2019-03-28T15:58:46.896Z,13.80
2019-03-28T16:01:17.587Z,13.80
2019-03-28T16:03:53.204Z,13.80
2019-03-28T16:06:22.370Z,13.70
2019-03-28T16:08:53.647Z,13.60
2019-03-28T16:11:24.523Z,13.50
2019-03-28T16:13:55.243Z,13.50
2019-03-28T16:16:25.952Z,13.50
2019-03-28T16:18:56.649Z,13.50
2019-03-28T16:21:27.392Z,13.60
2019-03-28T16:23:58.075Z,13.50
2019-03-28T16:26:28.795Z,13.50
2019-03-28T16:29:00.480Z,13.40
2019-03-28T16:31:31.299Z,13.30
2019-03-28T16:34:07.076Z,13.30
2019-03-28T16:36:35.129Z,13.20
2019-03-28T16:39:08.096Z,13.20
2019-03-28T16:41:40.506Z,13.10
2019-03-28T16:44:11.418Z,13.10
2019-03-28T16:46:42.245Z,12.90
2019-03-28T16:49:13.296Z,12.90
2019-03-28T16:51:44.236Z,12.90
2019-03-28T16:54:14.892Z,12.90
2019-03-28T16:56:45.983Z,12.80
2019-03-28T16:59:16.844Z,12.80
2019-03-28T17:01:48.334Z,12.70
2019-03-28T17:04:21.129Z,12.70
2019-03-28T17:06:52.350Z,12.60
2019-03-28T17:09:24.496Z,12.60
2019-03-28T17:11:55.248Z,12.60
2019-03-28T17:14:26.423Z,12.60
2019-03-28T17:16:57.999Z,12.60
2019-03-28T17:19:29.033Z,12.50
2019-03-28T17:22:00.277Z,12.50
2019-03-28T17:24:31.089Z,12.50
2019-03-28T17:27:01.841Z,12.50
2019-03-28T17:29:33.820Z,12.40
2019-03-28T17:32:05.113Z,12.40
2019-03-28T17:34:37.089Z,12.30
2019-03-28T17:37:08.447Z,12.30
2019-03-28T17:39:39.497Z,12.30
2019-03-28T17:42:10.249Z,12.20
2019-03-28T17:44:41.104Z,12.10
2019-03-28T17:47:11.981Z,12.10
2019-03-28T17:49:43.188Z,12.10
2019-03-28T17:52:14.255Z,12.00
2019-03-28T17:54:44.995Z,11.90
2019-03-28T17:57:16.012Z,11.90
2019-03-28T17:59:46.941Z,11.80
2019-03-28T18:02:18.067Z,11.80
2019-03-28T18:04:49.309Z,11.80
2019-03-28T18:07:20.205Z,11.70
2019-03-28T18:09:50.960Z,11.70
2019-03-28T18:12:21.776Z,11.60
2019-03-28T18:14:53.184Z,11.60
2019-03-28T18:17:25.706Z,11.60
2019-03-28T18:19:57.212Z,11.50
2019-03-28T18:22:28.082Z,11.50
2019-03-28T18:24:59.006Z,11.50
2019-03-28T18:27:29.860Z,11.40
2019-03-28T18:30:00.940Z,11.40
2019-03-28T18:32:32.343Z,11.40
2019-03-28T18:35:05.495Z,11.40
2019-03-28T18:37:35.798Z,11.30
2019-03-28T18:40:06.976Z,11.30
2019-03-28T18:42:37.906Z,11.20
2019-03-28T18:45:12.519Z,11.10
2019-03-28T18:47:42.212Z,11.00
2019-03-28T18:50:13.716Z,11.00
2019-03-28T18:52:44.646Z,11.00
2019-03-28T18:55:15.452Z,10.90
2019-03-28T18:57:46.358Z,10.90
2019-03-28T19:00:17.320Z,10.70
2019-03-28T19:02:48.113Z,10.70
2019-03-28T19:05:20.274Z,10.50
2019-03-28T19:07:51.355Z,10.40
2019-03-28T19:10:22.063Z,10.30
2019-03-28T19:12:52.747Z,10.10
2019-03-28T19:15:23.814Z,10.00
2019-03-28T19:17:54.693Z,9.80
2019-03-28T19:20:25.387Z,9.70
2019-03-28T19:22:56.130Z,9.60
2019-03-28T19:25:26.862Z,9.60
2019-03-28T19:27:57.570Z,9.60
2019-03-28T19:30:35.165Z,9.50
2019-03-28T19:33:07.080Z,9.50
2019-03-28T19:35:39.380Z,9.30
2019-03-28T19:38:10.085Z,9.20
2019-03-28T19:40:40.787Z,9.10
2019-03-28T19:43:20.266Z,8.90
2019-03-28T19:45:43.939Z,8.80
2019-03-28T19:48:14.838Z,8.70
2019-03-28T19:50:45.599Z,8.70
2019-03-28T19:53:16.390Z,8.80
2019-03-28T19:55:47.420Z,8.80
2019-03-28T19:58:18.178Z,8.70
2019-03-28T20:00:48.871Z,8.60
2019-03-28T20:03:22.877Z,8.50
2019-03-28T20:05:52.118Z,8.50
2019-03-28T20:08:26.358Z,8.50
2019-03-28T20:10:57.273Z,8.40
2019-03-28T20:13:30.686Z,8.20
2019-03-28T20:16:00.380Z,8.10
2019-03-28T20:18:31.077Z,8.10
2019-03-28T20:21:01.868Z,8.20
2019-03-28T20:23:35.487Z,8.10
2019-03-28T20:26:05.250Z,8.10
2019-03-28T20:28:35.990Z,8.00
2019-03-28T20:31:06.697Z,7.90
2019-03-28T20:33:37.886Z,7.80
2019-03-28T20:36:35.767Z,7.70
2019-03-28T20:38:42.186Z,7.70
2019-03-28T20:41:12.896Z,7.60
2019-03-28T20:43:44.705Z,7.50
2019-03-28T20:46:15.380Z,7.50
2019-03-28T20:48:46.129Z,7.40
2019-03-28T20:51:16.845Z,7.40
2019-03-28T20:53:47.639Z,7.30
2019-03-28T20:56:18.525Z,7.20
2019-03-28T20:58:49.278Z,7.10
2019-03-28T21:01:20.045Z,7.00
2019-03-28T21:03:50.853Z,7.00
2019-03-28T21:06:21.873Z,7.00
2019-03-28T21:08:52.578Z,7.00
2019-03-28T21:11:23.282Z,7.00
2019-03-28T21:13:54.011Z,7.00
2019-03-28T21:16:24.735Z,7.00
2019-03-28T21:18:55.515Z,6.90
2019-03-28T21:21:26.249Z,6.80
2019-03-28T21:23:57.997Z,6.80
2019-03-28T21:26:28.698Z,6.80
2019-03-28T21:28:59.436Z,6.80
2019-03-28T21:31:31.123Z,6.80
2019-03-28T21:34:01.860Z,6.70
2019-03-28T21:36:32.665Z,6.80
2019-03-28T21:39:05.122Z,6.80
2019-03-28T21:41:36.053Z,6.70
2019-03-28T21:44:07.744Z,6.70
2019-03-28T21:46:38.531Z,6.70
2019-03-28T21:49:09.207Z,6.70
2019-03-28T21:51:40.977Z,6.60
2019-03-28T21:54:11.701Z,6.60
2019-03-28T21:56:42.453Z,6.50
2019-03-28T21:59:13.251Z,6.70
2019-03-28T22:01:43.977Z,6.70
2019-03-28T22:04:14.743Z,6.60
2019-03-28T22:06:45.506Z,6.50
2019-03-28T22:09:16.302Z,6.40
2019-03-28T22:11:47.055Z,6.30
2019-03-28T22:14:17.835Z,6.20
2019-03-28T22:16:49.787Z,6.10
2019-03-28T22:19:20.623Z,6.10
2019-03-28T22:21:51.412Z,6.00
2019-03-28T22:24:22.104Z,5.90
2019-03-28T22:26:52.808Z,5.90
2019-03-28T22:29:23.528Z,5.90
2019-03-28T22:31:54.241Z,5.90
2019-03-28T22:34:24.931Z,5.90
2019-03-28T22:36:57.427Z,5.90
2019-03-28T22:39:28.106Z,5.80
2019-03-28T22:41:58.876Z,5.80
2019-03-28T22:44:29.615Z,5.80
2019-03-28T22:47:00.407Z,5.80
2019-03-28T22:49:31.820Z,5.80
2019-03-28T22:52:02.750Z,5.80
2019-03-28T22:54:33.494Z,5.80
2019-03-28T22:57:04.306Z,5.70
2019-03-28T22:59:35.063Z,5.60
2019-03-28T23:02:06.020Z,5.50
2019-03-28T23:04:36.688Z,5.30
2019-03-28T23:07:11.063Z,5.30
2019-03-28T23:09:39.901Z,5.20
2019-03-28T23:12:10.654Z,5.10
2019-03-28T23:14:41.319Z,5.10
2019-03-28T23:17:12.035Z,5.10
2019-03-28T23:19:42.750Z,5.10
2019-03-28T23:22:13.460Z,5.10
2019-03-28T23:24:44.382Z,5.10
2019-03-28T23:27:15.185Z,5.10
2019-03-28T23:29:45.943Z,5.00
2019-03-28T23:32:16.702Z,5.00
2019-03-28T23:34:48.147Z,5.00
2019-03-28T23:37:25.046Z,5.10
2019-03-28T23:39:51.981Z,5.00
2019-03-28T23:42:22.684Z,5.00
2019-03-28T23:44:53.867Z,5.00
2019-03-28T23:47:24.753Z,5.10
2019-03-28T23:49:55.515Z,5.00
2019-03-28T23:52:26.281Z,5.10
2019-03-28T23:54:56.971Z,5.10
2019-03-28T23:57:28.813Z,5.10
2019-03-28T23:59:59.568Z,5.00
